Time;durP1;ratioP1;P1;durP2;ratioP2;P2;SDS_P1;SDS_P2;PMS_P1;PMS_P2;Temp;Humidity;BMP_temperature;BMP_pressure;BME280_temperature;BME280_humidity;BME280_pressure;Samples;Min_cycle;Max_cycle;Signal;HPM_P1;HPM_P2
2021/12/20 00:00:47;;;;;;;;;;;6.00;99.90;;;;;;6117854;23;20650;-83
2021/12/20 00:03:14;;;;;;;;;;;6.00;99.90;;;;;;6119036;23;19921;-83
2021/12/20 00:05:40;;;;;;;;;;;6.00;99.90;;;;;;6118778;23;19925;-83
2021/12/20 00:08:05;;;;;;;;;;;6.00;99.90;;;;;;6118224;23;19931;-86
2021/12/20 00:10:31;;;;;;;;;;;6.00;99.90;;;;;;6118910;23;20369;-84
2021/12/20 00:12:57;;;;;;;;;;;6.00;99.90;;;;;;6119218;23;19972;-86
2021/12/20 00:15:22;;;;;;;;;;;6.00;99.90;;;;;;6118651;23;19948;-84
2021/12/20 00:17:48;;;;;;;;;;;6.00;99.90;;;;;;6119056;23;20342;-84
2021/12/20 00:20:13;;;;;;;;;;;6.00;99.90;;;;;;6118418;23;19921;-83
2021/12/20 00:22:40;;;;;;;;;;;5.90;99.90;;;;;;6118449;23;20242;-83
2021/12/20 00:25:06;;;;;;;;;;;5.90;99.90;;;;;;6136915;23;19921;-82
2021/12/20 00:27:31;;;;;;;;;;;5.90;99.90;;;;;;6150885;23;19987;-83
2021/12/20 00:29:57;;;;;;;;;;;5.90;99.90;;;;;;6123091;23;19924;-83
2021/12/20 00:32:22;;;;;;;;;;;5.90;99.90;;;;;;6124088;23;20344;-85
2021/12/20 00:34:48;;;;;;;;;;;5.90;99.90;;;;;;6122816;23;20034;-85
2021/12/20 00:42:42;;;;;;;;;;;5.80;99.90;;;;;;6123182;23;19937;-84
2021/12/20 00:45:08;;;;;;;;;;;5.90;99.90;;;;;;6124039;23;20074;-84
2021/12/20 00:47:34;;;;;;;;;;;5.80;99.90;;;;;;6123895;23;19916;-84
2021/12/20 00:50:00;;;;;;;;;;;5.80;99.90;;;;;;6123112;23;19925;-83
2021/12/20 00:52:25;;;;;;;;;;;5.80;99.90;;;;;;6149511;23;19975;-87
2021/12/20 00:54:51;;;;;;;;;;;5.80;99.90;;;;;;6124943;23;19975;-84
2021/12/20 00:57:17;;;;;;;;;;;5.80;99.90;;;;;;6123980;23;20230;-82
2021/12/20 00:59:42;;;;;;;;;;;5.70;99.90;;;;;;6123256;23;19916;-84
2021/12/20 01:02:08;;;;;;;;;;;5.70;99.90;;;;;;6123282;23;19921;-84
2021/12/20 01:04:33;;;;;;;;;;;5.80;99.90;;;;;;6123555;23;19921;-85
2021/12/20 01:06:59;;;;;;;;;;;5.70;99.90;;;;;;6122230;23;19928;-83
2021/12/20 01:09:24;;;;;;;;;;;5.70;99.90;;;;;;6123994;23;19925;-84
2021/12/20 01:11:53;;;;;;;;;;;5.70;99.90;;;;;;6149594;23;19920;-84
2021/12/20 01:14:23;;;;;;;;;;;5.70;99.90;;;;;;6149833;23;19949;-85
2021/12/20 01:16:49;;;;;;;;;;;5.70;99.90;;;;;;6123416;23;19924;-83
2021/12/20 01:19:15;;;;;;;;;;;5.70;99.90;;;;;;6123096;23;20305;-84
2021/12/20 01:21:40;;;;;;;;;;;5.70;99.90;;;;;;6123179;23;19920;-84
2021/12/20 01:24:06;;;;;;;;;;;5.70;99.90;;;;;;6148480;23;19928;-84
2021/12/20 01:26:32;;;;;;;;;;;5.60;99.90;;;;;;6122995;23;20190;-84
2021/12/20 01:28:57;;;;;;;;;;;5.60;99.90;;;;;;6123303;23;19920;-84
2021/12/20 01:31:23;;;;;;;;;;;5.60;99.90;;;;;;6122285;23;19920;-84
2021/12/20 01:33:48;;;;;;;;;;;5.60;99.90;;;;;;6150394;23;19921;-84
2021/12/20 01:36:14;;;;;;;;;;;5.50;99.90;;;;;;6123342;23;19969;-84
2021/12/20 01:38:39;;;;;;;;;;;5.50;99.90;;;;;;6122463;23;20337;-83
2021/12/20 01:41:05;;;;;;;;;;;5.40;99.90;;;;;;6150207;23;19924;-84
2021/12/20 01:43:30;;;;;;;;;;;5.40;99.90;;;;;;6123132;23;19940;-83
2021/12/20 01:45:56;;;;;;;;;;;5.40;99.90;;;;;;6122716;23;19927;-83
2021/12/20 01:48:23;;;;;;;;;;;5.30;99.90;;;;;;6123812;23;20312;-83
2021/12/20 01:51:18;;;;;;;;;;;5.30;99.90;;;;;;6122986;23;19927;-84
2021/12/20 01:53:44;;;;;;;;;;;5.30;99.90;;;;;;6122329;23;19929;-84
2021/12/20 01:56:09;;;;;;;;;;;5.20;99.90;;;;;;6149330;23;19951;-83
2021/12/20 01:58:35;;;;;;;;;;;5.20;99.90;;;;;;6123085;23;19935;-84
2021/12/20 02:03:41;;;;;;;;;;;5.10;99.90;;;;;;6149503;23;20276;-84
2021/12/20 02:06:15;;;;;;;;;;;5.00;99.90;;;;;;6123153;23;19916;-84
2021/12/20 02:08:41;;;;;;;;;;;5.00;99.90;;;;;;6120943;23;19972;-83
2021/12/20 02:11:10;;;;;;;;;;;4.90;99.90;;;;;;6148590;23;20225;-83
2021/12/20 02:13:36;;;;;;;;;;;4.90;99.90;;;;;;6121662;23;20322;-83
2021/12/20 02:16:02;;;;;;;;;;;4.90;99.90;;;;;;6123401;23;19928;-84
2021/12/20 02:18:28;;;;;;;;;;;4.80;99.90;;;;;;6123195;23;19932;-84
2021/12/20 02:20:54;;;;;;;;;;;4.80;99.90;;;;;;6122019;23;19956;-84
2021/12/20 02:23:19;;;;;;;;;;;4.80;99.90;;;;;;6123510;23;19931;-84
2021/12/20 02:25:45;;;;;;;;;;;4.70;99.90;;;;;;6118647;23;19921;-83
2021/12/20 02:28:12;;;;;;;;;;;5.00;99.90;;;;;;6116796;23;20334;-84
2021/12/20 02:30:47;;;;;;;;;;;4.60;99.90;;;;;;6120267;23;19927;-83
2021/12/20 02:38:43;;;;;;;;;;;4.40;99.90;;;;;;6117582;23;19933;-84
2021/12/20 02:41:19;;;;;;;;;;;4.40;99.90;;;;;;6121917;23;20103;-84
2021/12/20 02:44:03;;;;;;;;;;;4.30;99.90;;;;;;6118635;23;19925;-84
2021/12/20 02:49:04;;;;;;;;;;;4.30;99.90;;;;;;6119612;23;19921;-84
2021/12/20 02:51:29;;;;;;;;;;;4.30;99.90;;;;;;6119989;23;20685;-84
2021/12/20 02:53:55;;;;;;;;;;;4.30;99.90;;;;;;6120965;23;19967;-84
2021/12/20 02:56:21;;;;;;;;;;;4.20;99.90;;;;;;6119848;23;19921;-83
2021/12/20 02:58:47;;;;;;;;;;;4.20;99.90;;;;;;6120131;23;19975;-83
2021/12/20 03:01:12;;;;;;;;;;;4.20;99.90;;;;;;6121931;23;20016;-83
2021/12/20 03:03:38;;;;;;;;;;;4.20;99.90;;;;;;6119111;23;19932;-84
2021/12/20 03:06:15;;;;;;;;;;;4.20;99.90;;;;;;6119601;23;19948;-84
2021/12/20 03:08:44;;;;;;;;;;;4.20;99.90;;;;;;6119751;23;20402;-83
2021/12/20 03:11:10;;;;;;;;;;;4.20;99.90;;;;;;6118861;23;19921;-84
2021/12/20 03:13:36;;;;;;;;;;;4.20;99.90;;;;;;6121730;23;19925;-84
2021/12/20 03:16:01;;;;;;;;;;;4.20;99.90;;;;;;6119143;23;19920;-84
2021/12/20 03:18:27;;;;;;;;;;;4.20;99.90;;;;;;6120801;23;20314;-83
2021/12/20 03:20:52;;;;;;;;;;;4.20;99.90;;;;;;6119508;23;19921;-84
2021/12/20 03:23:18;;;;;;;;;;;4.20;99.90;;;;;;6119702;23;19925;-83
2021/12/20 03:25:44;;;;;;;;;;;4.10;99.90;;;;;;6119181;23;20207;-84
2021/12/20 03:28:09;;;;;;;;;;;4.10;99.90;;;;;;6119392;23;19960;-84
2021/12/20 03:30:35;;;;;;;;;;;4.10;99.90;;;;;;6119327;23;20268;-83
2021/12/20 03:33:00;;;;;;;;;;;4.10;99.90;;;;;;6119749;23;19917;-84
2021/12/20 03:35:26;;;;;;;;;;;4.00;99.90;;;;;;6119273;23;19921;-83
2021/12/20 03:37:52;;;;;;;;;;;4.00;99.90;;;;;;6118460;23;20402;-83
2021/12/20 03:40:18;;;;;;;;;;;3.90;99.90;;;;;;6119814;23;19925;-84
2021/12/20 03:42:45;;;;;;;;;;;3.90;99.90;;;;;;6119695;23;20055;-84
2021/12/20 03:45:13;;;;;;;;;;;3.80;99.90;;;;;;6116186;23;20127;-84
2021/12/20 03:47:39;;;;;;;;;;;3.80;99.90;;;;;;6120458;23;20398;-83
2021/12/20 03:50:04;;;;;;;;;;;3.70;99.90;;;;;;6118966;23;19975;-84
2021/12/20 03:52:30;;;;;;;;;;;3.70;99.90;;;;;;6118037;23;19925;-84
2021/12/20 03:54:55;;;;;;;;;;;3.70;99.90;;;;;;6119770;23;19978;-83
2021/12/20 03:57:21;;;;;;;;;;;3.60;99.90;;;;;;6120002;23;19980;-83
2021/12/20 03:59:48;;;;;;;;;;;3.50;99.90;;;;;;6118512;23;19920;-83
2021/12/20 04:02:18;;;;;;;;;;;3.50;99.90;;;;;;6119330;23;19921;-84
2021/12/20 04:04:43;;;;;;;;;;;3.40;99.90;;;;;;6118492;23;19928;-83
2021/12/20 04:07:09;;;;;;;;;;;3.40;99.90;;;;;;6118585;23;19924;-84
2021/12/20 04:09:34;;;;;;;;;;;3.30;99.90;;;;;;6121306;23;20000;-84
2021/12/20 04:12:00;;;;;;;;;;;3.30;99.90;;;;;;6121721;23;20363;-83
2021/12/20 04:14:25;;;;;;;;;;;3.20;99.90;;;;;;6120249;23;19992;-83
2021/12/20 04:16:51;;;;;;;;;;;3.20;99.90;;;;;;6117635;23;19920;-83
2021/12/20 04:19:16;;;;;;;;;;;3.20;99.90;;;;;;6119319;23;19921;-83
2021/12/20 04:21:42;;;;;;;;;;;3.10;99.90;;;;;;6117772;23;19950;-84
2021/12/20 04:24:07;;;;;;;;;;;3.10;99.90;;;;;;6123158;23;19921;-83
2021/12/20 04:26:33;;;;;;;;;;;3.00;99.90;;;;;;6124660;23;19924;-84
2021/12/20 04:28:58;;;;;;;;;;;3.00;99.90;;;;;;6123589;23;19928;-84
2021/12/20 04:31:24;;;;;;;;;;;3.30;99.90;;;;;;6150751;23;19920;-84
2021/12/20 04:33:50;;;;;;;;;;;2.90;99.90;;;;;;6124750;23;20002;-84
2021/12/20 04:36:15;;;;;;;;;;;2.90;99.90;;;;;;6148731;23;19921;-83
2021/12/20 04:38:41;;;;;;;;;;;2.80;99.90;;;;;;6123549;23;20273;-84
2021/12/20 04:41:06;;;;;;;;;;;2.80;99.90;;;;;;6124430;23;19924;-83
2021/12/20 04:43:32;;;;;;;;;;;2.70;99.90;;;;;;6123069;23;19925;-83
2021/12/20 04:45:57;;;;;;;;;;;2.70;99.90;;;;;;6124857;23;19944;-83
2021/12/20 04:48:23;;;;;;;;;;;2.70;99.90;;;;;;6123375;23;19936;-82
2021/12/20 04:50:48;;;;;;;;;;;2.60;99.90;;;;;;6123745;23;20050;-83
2021/12/20 04:53:14;;;;;;;;;;;2.60;99.90;;;;;;6123483;23;19927;-83
2021/12/20 04:55:40;;;;;;;;;;;2.50;99.90;;;;;;6150499;23;19920;-83
2021/12/20 04:58:06;;;;;;;;;;;2.50;99.90;;;;;;6124247;23;19928;-83
2021/12/20 05:00:36;;;;;;;;;;;2.50;99.90;;;;;;6150678;23;19924;-84
2021/12/20 05:03:02;;;;;;;;;;;2.50;99.90;;;;;;6123203;23;20301;-83
2021/12/20 05:05:28;;;;;;;;;;;2.40;99.90;;;;;;6149963;23;19948;-84
2021/12/20 05:07:55;;;;;;;;;;;2.40;99.90;;;;;;6123151;23;20253;-83
2021/12/20 05:10:26;;;;;;;;;;;2.40;99.90;;;;;;6150135;23;19943;-83
2021/12/20 05:12:52;;;;;;;;;;;2.40;99.90;;;;;;6123774;23;20006;-83
2021/12/20 05:15:18;;;;;;;;;;;2.40;99.90;;;;;;6123750;23;19920;-84
2021/12/20 05:17:44;;;;;;;;;;;2.30;99.90;;;;;;6122313;23;19925;-84
2021/12/20 05:20:09;;;;;;;;;;;2.30;99.90;;;;;;6123715;23;19961;-84
2021/12/20 05:22:35;;;;;;;;;;;2.30;99.90;;;;;;6123201;23;19920;-82
2021/12/20 05:25:00;;;;;;;;;;;2.30;99.90;;;;;;6117340;23;19928;-83
2021/12/20 05:27:26;;;;;;;;;;;2.30;99.90;;;;;;6117317;23;19931;-83
2021/12/20 05:29:52;;;;;;;;;;;2.20;99.90;;;;;;6118848;23;19975;-83
2021/12/20 05:32:18;;;;;;;;;;;2.20;99.90;;;;;;6117934;23;19949;-83
2021/12/20 05:34:43;;;;;;;;;;;2.20;99.90;;;;;;6118822;23;20337;-83
2021/12/20 05:37:09;;;;;;;;;;;2.10;99.90;;;;;;6118369;23;20000;-83
2021/12/20 05:39:34;;;;;;;;;;;2.20;99.90;;;;;;6117087;23;20298;-83
2021/12/20 05:42:00;;;;;;;;;;;2.10;99.90;;;;;;6118902;23;19925;-83
2021/12/20 05:44:25;;;;;;;;;;;2.10;99.90;;;;;;6117436;23;20305;-82
2021/12/20 05:46:52;;;;;;;;;;;2.10;99.90;;;;;;6118221;23;20349;-84
2021/12/20 05:49:18;;;;;;;;;;;2.10;99.90;;;;;;6119228;23;19928;-83
2021/12/20 05:51:43;;;;;;;;;;;2.00;99.90;;;;;;6118497;23;20499;-83
2021/12/20 05:54:09;;;;;;;;;;;2.00;99.90;;;;;;6118227;23;19928;-84
2021/12/20 05:56:34;;;;;;;;;;;2.00;99.90;;;;;;6118135;23;19961;-83
2021/12/20 05:59:00;;;;;;;;;;;2.00;99.90;;;;;;6117465;23;19920;-84
2021/12/20 06:01:25;;;;;;;;;;;1.90;99.90;;;;;;6119361;23;19996;-84
2021/12/20 06:03:51;;;;;;;;;;;1.90;99.90;;;;;;6118775;23;19955;-84
2021/12/20 06:06:17;;;;;;;;;;;1.80;99.90;;;;;;6117665;23;19928;-84
2021/12/20 06:08:42;;;;;;;;;;;1.80;99.90;;;;;;6118319;23;20094;-83
2021/12/20 06:11:08;;;;;;;;;;;1.70;99.90;;;;;;6118673;23;19995;-84
2021/12/20 06:13:33;;;;;;;;;;;1.70;99.90;;;;;;6116269;23;20238;-84
2021/12/20 06:15:58;;;;;;;;;;;1.60;99.90;;;;;;6119014;23;19924;-84
2021/12/20 06:18:24;;;;;;;;;;;1.60;99.90;;;;;;6118174;23;19925;-83
2021/12/20 06:20:49;;;;;;;;;;;1.60;99.90;;;;;;6117505;23;19921;-84
2021/12/20 06:23:15;;;;;;;;;;;1.60;99.90;;;;;;6118553;23;19925;-83
2021/12/20 06:25:40;;;;;;;;;;;1.60;99.90;;;;;;6117941;23;19925;-84
2021/12/20 06:28:06;;;;;;;;;;;1.60;99.90;;;;;;6117178;23;19999;-84
2021/12/20 06:30:31;;;;;;;;;;;1.60;99.90;;;;;;6118846;23;19921;-85
2021/12/20 06:32:57;;;;;;;;;;;1.50;99.90;;;;;;6117454;23;20332;-83
2021/12/20 06:35:23;;;;;;;;;;;1.50;99.90;;;;;;6119020;23;19928;-83
2021/12/20 06:37:59;;;;;;;;;;;1.50;99.90;;;;;;6118009;23;19921;-83
2021/12/20 06:40:24;;;;;;;;;;;1.50;99.90;;;;;;6118193;23;19928;-83
2021/12/20 06:42:50;;;;;;;;;;;1.50;99.90;;;;;;6119947;23;20291;-84
2021/12/20 06:45:15;;;;;;;;;;;1.50;99.90;;;;;;6118051;23;20270;-84
2021/12/20 06:47:41;;;;;;;;;;;1.50;99.90;;;;;;6118216;23;20341;-84
2021/12/20 06:50:07;;;;;;;;;;;1.50;99.90;;;;;;6116992;23;19924;-84
2021/12/20 06:52:32;;;;;;;;;;;1.40;99.90;;;;;;6119225;23;19925;-84
2021/12/20 06:54:58;;;;;;;;;;;1.40;99.90;;;;;;6118311;23;19920;-84
2021/12/20 06:57:23;;;;;;;;;;;1.40;99.90;;;;;;6117968;23;20321;-84
2021/12/20 06:59:49;;;;;;;;;;;1.40;99.90;;;;;;6117639;23;20199;-84
2021/12/20 07:02:14;;;;;;;;;;;1.40;99.90;;;;;;6116363;23;19963;-83
2021/12/20 07:04:40;;;;;;;;;;;1.40;99.90;;;;;;6117386;23;19936;-83
2021/12/20 07:07:06;;;;;;;;;;;1.30;99.90;;;;;;6117399;23;19991;-83
2021/12/20 07:09:31;;;;;;;;;;;1.30;99.90;;;;;;6116378;23;19925;-83
2021/12/20 07:11:57;;;;;;;;;;;1.30;99.90;;;;;;6117729;23;19971;-84
2021/12/20 07:14:26;;;;;;;;;;;1.30;99.90;;;;;;6119549;23;20000;-83
2021/12/20 07:16:52;;;;;;;;;;;1.30;99.90;;;;;;6118637;23;19928;-83
2021/12/20 07:19:18;;;;;;;;;;;1.30;99.90;;;;;;6117529;23;20334;-83
2021/12/20 07:21:43;;;;;;;;;;;1.30;99.90;;;;;;6119784;23;20287;-82
2021/12/20 07:24:09;;;;;;;;;;;1.70;99.90;;;;;;6123660;23;19929;-84
2021/12/20 07:26:34;;;;;;;;;;;2.20;99.90;;;;;;6126297;23;19926;-84
2021/12/20 07:29:00;;;;;;;;;;;1.20;99.90;;;;;;6125563;23;19928;-84
2021/12/20 07:31:26;;;;;;;;;;;1.20;99.90;;;;;;6123835;23;19921;-85
2021/12/20 07:33:51;;;;;;;;;;;1.20;99.90;;;;;;6124520;23;20663;-84
2021/12/20 07:36:21;;;;;;;;;;;1.20;99.90;;;;;;6122317;23;19999;-83
2021/12/20 07:38:47;;;;;;;;;;;1.20;99.90;;;;;;6123642;23;20023;-83
2021/12/20 07:41:16;;;;;;;;;;;1.10;99.90;;;;;;6127990;23;20301;-82
2021/12/20 07:43:41;;;;;;;;;;;1.10;99.90;;;;;;6130945;23;20234;-83
2021/12/20 07:46:07;;;;;;;;;;;1.10;99.90;;;;;;6121190;23;19920;-84
2021/12/20 07:48:32;;;;;;;;;;;1.10;99.90;;;;;;6125238;23;19931;-84
2021/12/20 07:50:59;;;;;;;;;;;1.50;99.90;;;;;;6125093;23;19917;-84
2021/12/20 07:53:25;;;;;;;;;;;1.10;99.90;;;;;;6125309;23;19984;-84
2021/12/20 07:55:51;;;;;;;;;;;1.10;99.90;;;;;;6124398;23;19921;-84
2021/12/20 07:58:16;;;;;;;;;;;1.10;99.90;;;;;;6123738;23;19991;-85
2021/12/20 08:00:42;;;;;;;;;;;1.10;99.90;;;;;;6124829;23;20006;-85
2021/12/20 08:03:09;;;;;;;;;;;1.10;99.90;;;;;;6123563;23;19936;-86
2021/12/20 08:05:37;;;;;;;;;;;1.10;99.90;;;;;;6123013;23;19920;-84
2021/12/20 08:08:03;;;;;;;;;;;1.10;99.90;;;;;;6124699;23;20035;-83
2021/12/20 08:10:28;;;;;;;;;;;1.10;99.90;;;;;;6123828;23;19924;-84
2021/12/20 08:12:54;;;;;;;;;;;1.10;99.90;;;;;;6123299;23;19920;-84
2021/12/20 08:15:26;;;;;;;;;;;1.10;99.90;;;;;;6124280;23;19925;-84
2021/12/20 08:17:52;;;;;;;;;;;1.10;99.90;;;;;;6124170;23;19920;-84
2021/12/20 08:20:18;;;;;;;;;;;1.10;99.90;;;;;;6123168;23;19936;-84
2021/12/20 08:22:43;;;;;;;;;;;1.10;99.90;;;;;;6125647;23;20388;-85
2021/12/20 08:25:09;;;;;;;;;;;1.10;99.90;;;;;;6119424;23;19927;-84
2021/12/20 08:27:35;;;;;;;;;;;1.10;99.90;;;;;;6118631;23;19921;-85
2021/12/20 08:30:01;;;;;;;;;;;1.10;99.90;;;;;;6119221;23;20272;-84
2021/12/20 08:32:26;;;;;;;;;;;1.10;99.90;;;;;;6118740;23;19924;-85
2021/12/20 08:34:52;;;;;;;;;;;1.20;99.90;;;;;;6115471;23;19952;-84
2021/12/20 08:37:18;;;;;;;;;;;1.20;99.90;;;;;;6120619;23;19924;-85
2021/12/20 08:39:44;;;;;;;;;;;1.20;99.90;;;;;;6119198;23;19925;-86
2021/12/20 08:42:09;;;;;;;;;;;1.30;99.90;;;;;;6119240;23;20273;-85
2021/12/20 08:44:35;;;;;;;;;;;1.30;99.90;;;;;;6117982;23;19932;-85
2021/12/20 08:47:00;;;;;;;;;;;1.30;99.90;;;;;;6118981;23;19925;-85
2021/12/20 08:49:26;;;;;;;;;;;1.30;99.90;;;;;;6116932;23;20009;-86
2021/12/20 08:51:53;;;;;;;;;;;1.40;99.90;;;;;;6119265;23;19968;-85
2021/12/20 08:54:18;;;;;;;;;;;1.30;99.90;;;;;;6120218;23;19983;-86
2021/12/20 08:56:44;;;;;;;;;;;1.30;99.90;;;;;;6120153;23;19925;-87
2021/12/20 08:59:09;;;;;;;;;;;1.30;99.90;;;;;;6119921;23;20341;-85
2021/12/20 09:01:38;;;;;;;;;;;1.40;99.90;;;;;;6117745;23;19928;-85
2021/12/20 09:04:05;;;;;;;;;;;1.40;99.90;;;;;;6120077;23;19925;-84
2021/12/20 09:06:32;;;;;;;;;;;1.40;99.90;;;;;;6119916;23;19967;-84
2021/12/20 09:08:58;;;;;;;;;;;1.40;99.90;;;;;;6117493;23;19916;-85
2021/12/20 09:11:25;;;;;;;;;;;1.40;99.90;;;;;;6117358;23;19924;-86
2021/12/20 09:13:51;;;;;;;;;;;1.60;99.90;;;;;;6119341;23;19920;-84
2021/12/20 09:16:17;;;;;;;;;;;1.60;99.90;;;;;;6117632;23;20454;-84
2021/12/20 09:18:43;;;;;;;;;;;1.50;99.90;;;;;;6118064;23;19936;-85
2021/12/20 09:21:10;;;;;;;;;;;1.50;99.90;;;;;;6120016;23;20310;-86
2021/12/20 09:23:36;;;;;;;;;;;2.00;99.90;;;;;;6119645;23;19944;-85
2021/12/20 09:26:02;;;;;;;;;;;1.60;99.90;;;;;;6125926;23;19927;-86
2021/12/20 09:28:27;;;;;;;;;;;1.70;99.90;;;;;;6128784;23;20377;-85
2021/12/20 09:30:53;;;;;;;;;;;1.90;99.90;;;;;;6125321;23;19932;-86
2021/12/20 09:33:19;;;;;;;;;;;2.10;99.90;;;;;;6129759;23;19960;-85
2021/12/20 09:35:44;;;;;;;;;;;2.40;99.90;;;;;;6123193;23;20623;-85
2021/12/20 09:38:11;;;;;;;;;;;2.80;99.90;;;;;;6122483;23;19920;-85
2021/12/20 09:40:40;;;;;;;;;;;3.30;99.90;;;;;;6150794;23;19921;-85
2021/12/20 09:43:13;;;;;;;;;;;3.80;99.90;;;;;;6124930;23;20448;-87
2021/12/20 09:45:42;;;;;;;;;;;4.30;99.90;;;;;;6124351;23;19925;-86
2021/12/20 09:48:07;;;;;;;;;;;4.60;99.90;;;;;;6126264;23;19921;-86
2021/12/20 09:50:35;;;;;;;;;;;4.90;99.90;;;;;;6124569;23;19939;-86
2021/12/20 09:53:07;;;;;;;;;;;5.50;99.90;;;;;;6124181;23;19996;-86
2021/12/20 09:55:33;;;;;;;;;;;5.80;99.90;;;;;;6150535;23;19928;-86
2021/12/20 09:57:59;;;;;;;;;;;6.10;99.90;;;;;;6123085;23;19920;-83
2021/12/20 10:00:25;;;;;;;;;;;6.20;99.90;;;;;;6124251;23;20218;-84
2021/12/20 10:02:50;;;;;;;;;;;6.30;99.90;;;;;;6123581;23;19921;-85
2021/12/20 10:05:17;;;;;;;;;;;6.60;99.90;;;;;;6122420;23;19928;-84
2021/12/20 10:07:47;;;;;;;;;;;7.30;99.90;;;;;;6122896;23;19964;-87
2021/12/20 10:10:32;;;;;;;;;;;8.40;99.90;;;;;;6126646;23;19951;-85
2021/12/20 10:12:58;;;;;;;;;;;9.60;99.90;;;;;;6125121;23;19921;-87
2021/12/20 10:15:31;;;;;;;;;;;10.70;99.90;;;;;;6123887;23;20348;-86
2021/12/20 10:17:59;;;;;;;;;;;11.50;99.90;;;;;;6121849;23;19951;-86
2021/12/20 10:20:26;;;;;;;;;;;12.40;99.90;;;;;;6122443;23;19973;-85
2021/12/20 10:22:52;;;;;;;;;;;13.20;99.90;;;;;;6123667;23;20255;-87
2021/12/20 10:25:25;;;;;;;;;;;14.10;99.90;;;;;;6124283;23;19987;-87
2021/12/20 10:27:52;;;;;;;;;;;15.10;99.90;;;;;;6121724;23;19924;-87
2021/12/20 10:30:20;;;;;;;;;;;16.00;98.90;;;;;;6123513;23;19940;-87
2021/12/20 10:32:46;;;;;;;;;;;16.70;97.30;;;;;;6122887;23;19924;-87
2021/12/20 10:35:30;;;;;;;;;;;17.40;94.90;;;;;;6120814;23;20352;-86
2021/12/20 10:38:00;;;;;;;;;;;17.90;90.30;;;;;;6122529;23;19932;-87
2021/12/20 10:40:26;;;;;;;;;;;18.20;88.30;;;;;;6119072;23;19932;-86
2021/12/20 10:42:53;;;;;;;;;;;18.20;86.40;;;;;;6124314;23;19925;-88
2021/12/20 10:45:20;;;;;;;;;;;18.30;82.90;;;;;;6125573;23;19935;-88
2021/12/20 10:47:50;;;;;;;;;;;18.20;78.60;;;;;;6123186;23;19934;-87
2021/12/20 10:50:27;;;;;;;;;;;17.60;78.80;;;;;;6150556;23;19924;-87
2021/12/20 10:52:54;;;;;;;;;;;16.90;90.20;;;;;;6123961;23;19920;-88
2021/12/20 10:55:39;;;;;;;;;;;16.40;86.00;;;;;;6127163;23;19920;-86
2021/12/20 10:58:28;;;;;;;;;;;16.20;87.50;;;;;;6126299;23;19921;-86
2021/12/20 11:01:00;;;;;;;;;;;16.30;87.60;;;;;;6126363;23;19956;-86
2021/12/20 11:03:28;;;;;;;;;;;15.80;90.10;;;;;;6126519;23;19921;-86
2021/12/20 11:11:13;;;;;;;;;;;14.60;84.80;;;;;;6128683;23;19925;-89
2021/12/20 11:13:39;;;;;;;;;;;15.20;92.60;;;;;;6125913;23;19983;-92
2021/12/20 11:16:26;;;;;;;;;;;16.00;91.60;;;;;;6127298;23;19921;-90
2021/12/20 11:19:12;;;;;;;;;;;16.20;85.70;;;;;;6129751;23;20253;-89
2021/12/20 11:21:40;;;;;;;;;;;15.40;88.60;;;;;;6131201;23;19921;-90
2021/12/20 11:24:13;;;;;;;;;;;14.10;86.70;;;;;;6132101;23;19920;-90
2021/12/20 11:26:39;;;;;;;;;;;13.10;93.40;;;;;;6134157;23;19990;-92
2021/12/20 11:29:05;;;;;;;;;;;12.10;97.00;;;;;;6135988;23;19920;-91
2021/12/20 11:31:32;;;;;;;;;;;11.30;97.80;;;;;;6140561;23;20046;-91
2021/12/20 11:33:59;;;;;;;;;;;10.70;98.80;;;;;;6136532;23;19930;-92
2021/12/20 11:36:24;;;;;;;;;;;10.30;99.60;;;;;;6137327;23;19928;-90
2021/12/20 11:38:50;;;;;;;;;;;9.90;99.30;;;;;;6131887;23;20221;-91
2021/12/20 11:41:16;;;;;;;;;;;9.50;99.30;;;;;;6131482;23;19993;-90
2021/12/20 11:43:42;;;;;;;;;;;9.20;99.90;;;;;;6130369;23;19921;-89
2021/12/20 11:46:07;;;;;;;;;;;9.00;99.90;;;;;;6154061;23;19917;-90
2021/12/20 11:48:34;;;;;;;;;;;8.60;99.90;;;;;;6130988;23;19932;-90
2021/12/20 11:51:00;;;;;;;;;;;8.90;99.90;;;;;;6129317;23;19916;-90
2021/12/20 11:53:33;;;;;;;;;;;8.00;96.90;;;;;;6132998;23;19928;-93
2021/12/20 11:55:59;;;;;;;;;;;7.80;95.00;;;;;;6130486;23;19924;-90
2021/12/20 11:58:25;;;;;;;;;;;7.60;96.30;;;;;;6126464;23;19962;-89
2021/12/20 12:00:52;;;;;;;;;;;7.70;99.90;;;;;;6128101;23;19925;-93
2021/12/20 12:03:19;;;;;;;;;;;7.30;99.90;;;;;;6127028;23;20108;-87
2021/12/20 12:05:49;;;;;;;;;;;7.20;99.90;;;;;;6125311;23;19920;-88
2021/12/20 12:08:24;;;;;;;;;;;7.10;99.90;;;;;;6127659;23;20020;-93
2021/12/20 12:10:50;;;;;;;;;;;7.00;99.90;;;;;;6130232;23;20333;-90
2021/12/20 12:13:19;;;;;;;;;;;7.00;99.90;;;;;;6129739;23;22548;-93
2021/12/20 12:16:03;;;;;;;;;;;6.90;99.90;;;;;;6126066;23;19924;-88
2021/12/20 12:18:42;;;;;;;;;;;6.80;99.90;;;;;;6125906;23;19932;-89
2021/12/20 12:21:08;;;;;;;;;;;6.80;99.90;;;;;;6125796;23;19979;-86
2021/12/20 12:23:44;;;;;;;;;;;6.70;99.90;;;;;;6123985;23;19933;-87
2021/12/20 12:26:12;;;;;;;;;;;6.70;99.90;;;;;;6119135;23;19932;-87
2021/12/20 12:28:52;;;;;;;;;;;6.60;99.90;;;;;;6121552;23;19998;-88
2021/12/20 12:31:17;;;;;;;;;;;6.60;99.90;;;;;;6121326;23;19921;-86
2021/12/20 12:33:42;;;;;;;;;;;6.50;99.90;;;;;;6122609;23;19920;-86
2021/12/20 12:36:20;;;;;;;;;;;6.50;99.90;;;;;;6118956;23;19925;-87
2021/12/20 12:38:52;;;;;;;;;;;6.50;99.90;;;;;;6118612;23;19924;-89
2021/12/20 12:41:23;;;;;;;;;;;6.40;99.90;;;;;;6120054;23;20003;-91
2021/12/20 12:43:49;;;;;;;;;;;6.30;98.80;;;;;;6121962;23;20300;-88
2021/12/20 12:46:15;;;;;;;;;;;6.30;99.90;;;;;;6122313;23;19952;-89
2021/12/20 12:48:49;;;;;;;;;;;6.30;99.90;;;;;;6090988;23;19984;-87
2021/12/20 12:51:34;;;;;;;;;;;6.20;99.90;;;;;;6114346;23;20267;-87
2021/12/20 12:54:00;;;;;;;;;;;6.20;99.90;;;;;;6090560;23;19953;-87
2021/12/20 12:56:28;;;;;;;;;;;6.20;99.90;;;;;;6117586;23;19917;-87
2021/12/20 12:59:12;;;;;;;;;;;6.10;99.90;;;;;;6094870;23;20324;-90
2021/12/20 13:01:40;;;;;;;;;;;6.10;99.90;;;;;;6094852;23;20016;-88
2021/12/20 13:04:06;;;;;;;;;;;6.10;99.90;;;;;;6115858;23;19921;-88
2021/12/20 13:06:31;;;;;;;;;;;6.00;99.90;;;;;;6090406;23;20072;-86
2021/12/20 13:08:59;;;;;;;;;;;6.00;99.90;;;;;;6114849;23;20313;-87
2021/12/20 13:11:26;;;;;;;;;;;5.90;99.90;;;;;;6090917;23;19956;-87
2021/12/20 13:14:30;;;;;;;;;;;5.90;99.90;;;;;;6094264;23;19921;-90
2021/12/20 13:16:59;;;;;;;;;;;5.80;99.90;;;;;;6051075;23;19922;-88
2021/12/20 13:19:28;;;;;;;;;;;5.80;99.90;;;;;;6115079;23;19932;-86
2021/12/20 13:22:03;;;;;;;;;;;5.80;98.70;;;;;;6091495;23;19963;-86
2021/12/20 13:24:29;;;;;;;;;;;5.80;99.90;;;;;;6117235;23;20481;-88
2021/12/20 13:27:04;;;;;;;;;;;5.80;99.90;;;;;;6094427;23;20272;-88
2021/12/20 13:29:30;;;;;;;;;;;5.80;99.90;;;;;;6117329;23;19921;-89
2021/12/20 13:32:08;;;;;;;;;;;5.80;99.90;;;;;;6123587;23;19953;-91
2021/12/20 13:34:34;;;;;;;;;;;5.70;99.90;;;;;;6105561;23;19957;-89
2021/12/20 13:37:04;;;;;;;;;;;5.60;99.90;;;;;;6100862;23;19922;-90
2021/12/20 13:39:29;;;;;;;;;;;5.60;99.90;;;;;;6097084;23;19965;-88
2021/12/20 13:42:02;;;;;;;;;;;5.50;99.90;;;;;;6094126;23;19921;-90
2021/12/20 13:44:30;;;;;;;;;;;5.50;99.90;;;;;;6120474;23;19984;-92
2021/12/20 13:47:00;;;;;;;;;;;5.40;99.90;;;;;;6125996;23;19949;-90
2021/12/20 13:49:26;;;;;;;;;;;5.40;99.90;;;;;;6104256;23;19980;-96
2021/12/20 13:52:01;;;;;;;;;;;5.40;99.90;;;;;;6096119;23;20383;-94
2021/12/20 13:54:26;;;;;;;;;;;5.30;99.90;;;;;;6097922;23;19931;-92
2021/12/20 13:57:14;;;;;;;;;;;5.30;99.90;;;;;;6121316;23;19988;-92
2021/12/20 13:59:46;;;;;;;;;;;5.20;99.90;;;;;;6099233;23;19921;-92
2021/12/20 14:02:13;;;;;;;;;;;5.20;99.90;;;;;;6124145;23;20312;-91
2021/12/20 14:04:47;;;;;;;;;;;5.20;99.90;;;;;;6123192;23;19925;-91
2021/12/20 14:07:22;;;;;;;;;;;5.20;99.90;;;;;;6137030;23;19961;-92
2021/12/20 14:10:06;;;;;;;;;;;5.20;99.90;;;;;;6124790;23;19922;-91
2021/12/20 14:12:40;;;;;;;;;;;5.10;99.90;;;;;;6102900;23;19945;-92
2021/12/20 14:15:11;;;;;;;;;;;5.10;99.90;;;;;;6104704;23;19918;-91
2021/12/20 14:17:55;;;;;;;;;;;5.00;99.90;;;;;;6124470;23;19948;-92
2021/12/20 14:20:41;;;;;;;;;;;5.00;99.90;;;;;;6102267;23;19971;-94
2021/12/20 14:23:22;;;;;;;;;;;4.90;99.90;;;;;;6104857;23;19960;-93
2021/12/20 14:25:49;;;;;;;;;;;4.80;99.90;;;;;;6104396;23;19921;-94
2021/12/20 14:28:19;;;;;;;;;;;4.70;99.90;;;;;;6134425;23;19992;-92
2021/12/20 14:30:46;;;;;;;;;;;4.70;99.90;;;;;;6131515;23;19932;-93
2021/12/20 14:33:26;;;;;;;;;;;4.60;99.90;;;;;;6101011;23;19996;-92
2021/12/20 14:35:55;;;;;;;;;;;4.60;99.90;;;;;;6125965;23;19977;-92
2021/12/20 14:38:34;;;;;;;;;;;4.50;99.90;;;;;;6126281;23;20291;-92
2021/12/20 14:41:00;;;;;;;;;;;4.50;99.90;;;;;;6099158;23;19922;-93
2021/12/20 14:43:33;;;;;;;;;;;4.40;99.90;;;;;;6125433;23;19921;-93
2021/12/20 14:46:25;;;;;;;;;;;4.30;99.90;;;;;;6127126;23;20330;-93
2021/12/20 14:48:57;;;;;;;;;;;4.30;99.90;;;;;;6099295;23;19932;-93
2021/12/20 14:51:26;;;;;;;;;;;4.30;99.90;;;;;;6126523;23;20005;-95
2021/12/20 14:54:10;;;;;;;;;;;4.20;99.90;;;;;;6101224;23;19917;-92